sensor_id;sensor_type;location;lat;lon;timestamp;P1;durP1;ratioP1;P2;durP2;ratioP2
57433;SDS011;43277;52.672;6.984;2022-09-29T00:01:23;245.43;;;36.17;;
57433;SDS011;43277;52.672;6.984;2022-09-29T00:03:49;244.45;;;14.70;;
57433;SDS011;43277;52.672;6.984;2022-09-29T00:06:15;239.27;;;18.73;;
57433;SDS011;43277;52.672;6.984;2022-09-29T00:08:42;90.70;;;17.17;;
57433;SDS011;43277;52.672;6.984;2022-09-29T00:11:09;166.52;;;23.85;;
57433;SDS011;43277;52.672;6.984;2022-09-29T00:13:36;406.58;;;58.65;;
57433;SDS011;43277;52.672;6.984;2022-09-29T00:16:02;143.63;;;19.80;;
57433;SDS011;43277;52.672;6.984;2022-09-29T00:18:28;93.47;;;22.58;;
57433;SDS011;43277;52.672;6.984;2022-09-29T00:20:56;123.03;;;31.60;;
57433;SDS011;43277;52.672;6.984;2022-09-29T00:23:23;93.25;;;25.83;;
57433;SDS011;43277;52.672;6.984;2022-09-29T00:25:58;43.58;;;13.10;;
57433;SDS011;43277;52.672;6.984;2022-09-29T00:28:46;71.53;;;17.83;;
57433;SDS011;43277;52.672;6.984;2022-09-29T00:31:14;52.90;;;11.52;;
57433;SDS011;43277;52.672;6.984;2022-09-29T00:33:39;57.88;;;14.40;;
57433;SDS011;43277;52.672;6.984;2022-09-29T00:36:06;49.45;;;12.77;;
57433;SDS011;43277;52.672;6.984;2022-09-29T00:38:34;20.85;;;6.15;;
57433;SDS011;43277;52.672;6.984;2022-09-29T00:41:01;58.65;;;19.08;;
57433;SDS011;43277;52.672;6.984;2022-09-29T00:49:26;121.63;;;15.73;;
57433;SDS011;43277;52.672;6.984;2022-09-29T00:51:58;112.65;;;14.75;;
57433;SDS011;43277;52.672;6.984;2022-09-29T00:54:34;38.05;;;9.50;;
57433;SDS011;43277;52.672;6.984;2022-09-29T00:57:04;46.53;;;6.97;;
57433;SDS011;43277;52.672;6.984;2022-09-29T00:59:33;6.28;;;4.60;;
57433;SDS011;43277;52.672;6.984;2022-09-29T01:02:10;10.05;;;6.63;;
57433;SDS011;43277;52.672;6.984;2022-09-29T01:04:37;21.08;;;7.88;;
57433;SDS011;43277;52.672;6.984;2022-09-29T01:07:03;44.63;;;11.45;;
57433;SDS011;43277;52.672;6.984;2022-09-29T01:09:30;177.93;;;19.65;;
57433;SDS011;43277;52.672;6.984;2022-09-29T01:11:59;104.30;;;9.85;;
57433;SDS011;43277;52.672;6.984;2022-09-29T01:14:26;195.95;;;29.05;;
57433;SDS011;43277;52.672;6.984;2022-09-29T01:16:53;277.33;;;30.10;;
57433;SDS011;43277;52.672;6.984;2022-09-29T01:22:13;97.00;;;20.92;;
57433;SDS011;43277;52.672;6.984;2022-09-29T01:30:20;151.30;;;25.88;;
57433;SDS011;43277;52.672;6.984;2022-09-29T01:33:02;106.95;;;25.67;;
57433;SDS011;43277;52.672;6.984;2022-09-29T01:35:46;64.35;;;15.45;;
57433;SDS011;43277;52.672;6.984;2022-09-29T01:41:01;34.63;;;21.17;;
57433;SDS011;43277;52.672;6.984;2022-09-29T01:43:32;27.00;;;18.85;;
57433;SDS011;43277;52.672;6.984;2022-09-29T01:46:12;49.40;;;8.10;;
57433;SDS011;43277;52.672;6.984;2022-09-29T01:48:45;32.30;;;19.58;;
57433;SDS011;43277;52.672;6.984;2022-09-29T01:51:24;25.45;;;17.50;;
57433;SDS011;43277;52.672;6.984;2022-09-29T01:54:03;18.05;;;16.10;;
57433;SDS011;43277;52.672;6.984;2022-09-29T01:56:37;16.17;;;14.52;;
57433;SDS011;43277;52.672;6.984;2022-09-29T01:59:21;16.63;;;14.85;;
57433;SDS011;43277;52.672;6.984;2022-09-29T02:01:53;13.90;;;12.55;;
57433;SDS011;43277;52.672;6.984;2022-09-29T02:04:31;13.80;;;12.50;;
57433;SDS011;43277;52.672;6.984;2022-09-29T02:07:04;15.82;;;14.35;;
57433;SDS011;43277;52.672;6.984;2022-09-29T02:09:37;12.18;;;8.75;;
57433;SDS011;43277;52.672;6.984;2022-09-29T02:12:07;12.68;;;11.48;;
57433;SDS011;43277;52.672;6.984;2022-09-29T02:14:38;10.20;;;8.67;;
57433;SDS011;43277;52.672;6.984;2022-09-29T02:19:55;29.75;;;11.00;;
57433;SDS011;43277;52.672;6.984;2022-09-29T02:22:21;61.08;;;17.85;;
57433;SDS011;43277;52.672;6.984;2022-09-29T02:24:47;117.18;;;34.28;;
57433;SDS011;43277;52.672;6.984;2022-09-29T02:27:15;89.03;;;6.45;;
57433;SDS011;43277;52.672;6.984;2022-09-29T02:29:41;190.02;;;33.92;;
57433;SDS011;43277;52.672;6.984;2022-09-29T02:32:08;63.65;;;6.90;;
57433;SDS011;43277;52.672;6.984;2022-09-29T02:34:35;175.23;;;18.45;;
57433;SDS011;43277;52.672;6.984;2022-09-29T02:37:41;90.97;;;15.80;;
57433;SDS011;43277;52.672;6.984;2022-09-29T02:42:59;170.43;;;21.52;;
57433;SDS011;43277;52.672;6.984;2022-09-29T02:45:52;142.98;;;17.27;;
57433;SDS011;43277;52.672;6.984;2022-09-29T02:51:17;90.70;;;13.70;;
57433;SDS011;43277;52.672;6.984;2022-09-29T02:54:00;67.50;;;13.80;;
57433;SDS011;43277;52.672;6.984;2022-09-29T02:56:45;111.82;;;20.88;;
57433;SDS011;43277;52.672;6.984;2022-09-29T03:02:22;38.22;;;8.50;;
57433;SDS011;43277;52.672;6.984;2022-09-29T03:04:49;50.53;;;15.73;;
57433;SDS011;43277;52.672;6.984;2022-09-29T03:07:16;42.63;;;14.25;;
57433;SDS011;43277;52.672;6.984;2022-09-29T03:09:41;70.72;;;17.17;;
57433;SDS011;43277;52.672;6.984;2022-09-29T03:12:08;162.35;;;36.42;;
57433;SDS011;43277;52.672;6.984;2022-09-29T03:14:34;105.45;;;22.75;;
57433;SDS011;43277;52.672;6.984;2022-09-29T03:16:59;118.35;;;24.83;;
57433;SDS011;43277;52.672;6.984;2022-09-29T03:19:25;62.80;;;8.55;;
57433;SDS011;43277;52.672;6.984;2022-09-29T03:21:50;119.07;;;30.58;;
57433;SDS011;43277;52.672;6.984;2022-09-29T03:24:16;132.55;;;24.52;;
57433;SDS011;43277;52.672;6.984;2022-09-29T03:26:41;175.88;;;23.02;;
57433;SDS011;43277;52.672;6.984;2022-09-29T03:29:07;51.17;;;6.22;;
57433;SDS011;43277;52.672;6.984;2022-09-29T03:31:32;86.72;;;14.40;;
57433;SDS011;43277;52.672;6.984;2022-09-29T03:33:58;96.72;;;19.92;;
57433;SDS011;43277;52.672;6.984;2022-09-29T03:36:23;41.15;;;10.38;;
57433;SDS011;43277;52.672;6.984;2022-09-29T03:38:49;34.80;;;16.48;;
57433;SDS011;43277;52.672;6.984;2022-09-29T03:41:15;49.33;;;13.82;;
57433;SDS011;43277;52.672;6.984;2022-09-29T03:43:41;29.08;;;16.73;;
57433;SDS011;43277;52.672;6.984;2022-09-29T03:46:06;14.18;;;12.88;;
57433;SDS011;43277;52.672;6.984;2022-09-29T03:48:32;8.10;;;5.63;;
57433;SDS011;43277;52.672;6.984;2022-09-29T03:50:59;23.33;;;13.95;;
57433;SDS011;43277;52.672;6.984;2022-09-29T03:53:25;17.90;;;6.75;;
57433;SDS011;43277;52.672;6.984;2022-09-29T03:55:51;21.63;;;11.23;;
57433;SDS011;43277;52.672;6.984;2022-09-29T03:58:17;101.97;;;21.00;;
57433;SDS011;43277;52.672;6.984;2022-09-29T04:00:43;111.05;;;26.83;;
57433;SDS011;43277;52.672;6.984;2022-09-29T04:03:09;19.15;;;6.32;;
57433;SDS011;43277;52.672;6.984;2022-09-29T04:05:35;213.02;;;46.78;;
57433;SDS011;43277;52.672;6.984;2022-09-29T04:08:02;229.52;;;32.10;;
57433;SDS011;43277;52.672;6.984;2022-09-29T04:10:29;328.50;;;36.65;;
57433;SDS011;43277;52.672;6.984;2022-09-29T04:12:55;650.03;;;103.22;;
57433;SDS011;43277;52.672;6.984;2022-09-29T04:15:20;104.07;;;10.10;;
57433;SDS011;43277;52.672;6.984;2022-09-29T04:17:46;146.85;;;15.48;;
57433;SDS011;43277;52.672;6.984;2022-09-29T04:20:12;467.80;;;74.63;;
57433;SDS011;43277;52.672;6.984;2022-09-29T04:22:37;156.52;;;23.80;;
57433;SDS011;43277;52.672;6.984;2022-09-29T04:25:03;269.20;;;45.88;;
57433;SDS011;43277;52.672;6.984;2022-09-29T04:27:29;182.75;;;25.30;;
57433;SDS011;43277;52.672;6.984;2022-09-29T04:29:54;129.52;;;41.10;;
57433;SDS011;43277;52.672;6.984;2022-09-29T04:32:20;75.38;;;13.52;;
57433;SDS011;43277;52.672;6.984;2022-09-29T04:34:47;27.98;;;6.13;;
57433;SDS011;43277;52.672;6.984;2022-09-29T04:37:12;29.05;;;5.40;;
57433;SDS011;43277;52.672;6.984;2022-09-29T04:39:38;106.28;;;22.45;;
57433;SDS011;43277;52.672;6.984;2022-09-29T04:42:04;36.28;;;6.38;;
57433;SDS011;43277;52.672;6.984;2022-09-29T04:44:29;168.68;;;41.45;;
57433;SDS011;43277;52.672;6.984;2022-09-29T04:46:55;250.48;;;36.83;;
57433;SDS011;43277;52.672;6.984;2022-09-29T04:49:21;131.48;;;52.38;;
57433;SDS011;43277;52.672;6.984;2022-09-29T04:51:46;280.85;;;38.05;;
57433;SDS011;43277;52.672;6.984;2022-09-29T04:54:12;156.48;;;13.75;;
57433;SDS011;43277;52.672;6.984;2022-09-29T04:56:38;182.55;;;32.03;;
57433;SDS011;43277;52.672;6.984;2022-09-29T04:59:04;152.98;;;18.13;;
57433;SDS011;43277;52.672;6.984;2022-09-29T05:01:30;293.23;;;40.10;;
57433;SDS011;43277;52.672;6.984;2022-09-29T05:03:56;26.30;;;8.00;;
57433;SDS011;43277;52.672;6.984;2022-09-29T05:06:22;42.28;;;7.07;;
57433;SDS011;43277;52.672;6.984;2022-09-29T05:08:47;72.85;;;6.25;;
57433;SDS011;43277;52.672;6.984;2022-09-29T05:11:13;193.68;;;37.70;;
57433;SDS011;43277;52.672;6.984;2022-09-29T05:13:39;172.48;;;56.80;;
57433;SDS011;43277;52.672;6.984;2022-09-29T05:16:05;88.75;;;30.13;;
57433;SDS011;43277;52.672;6.984;2022-09-29T05:18:31;174.18;;;31.40;;
57433;SDS011;43277;52.672;6.984;2022-09-29T05:21:07;126.18;;;23.95;;
57433;SDS011;43277;52.672;6.984;2022-09-29T05:23:33;126.18;;;18.65;;
57433;SDS011;43277;52.672;6.984;2022-09-29T05:26:02;68.38;;;8.07;;
57433;SDS011;43277;52.672;6.984;2022-09-29T05:31:05;235.93;;;43.33;;
57433;SDS011;43277;52.672;6.984;2022-09-29T05:33:32;123.07;;;37.58;;
57433;SDS011;43277;52.672;6.984;2022-09-29T05:35:59;65.45;;;7.43;;
57433;SDS011;43277;52.672;6.984;2022-09-29T05:38:25;226.93;;;34.50;;
57433;SDS011;43277;52.672;6.984;2022-09-29T05:40:51;107.85;;;16.85;;
57433;SDS011;43277;52.672;6.984;2022-09-29T05:43:17;67.15;;;20.33;;
57433;SDS011;43277;52.672;6.984;2022-09-29T05:45:43;50.45;;;30.67;;
57433;SDS011;43277;52.672;6.984;2022-09-29T05:48:09;18.63;;;6.65;;
57433;SDS011;43277;52.672;6.984;2022-09-29T05:50:35;9.38;;;5.53;;
57433;SDS011;43277;52.672;6.984;2022-09-29T05:53:06;9.70;;;5.70;;
57433;SDS011;43277;52.672;6.984;2022-09-29T05:55:32;37.58;;;27.13;;
57433;SDS011;43277;52.672;6.984;2022-09-29T05:57:59;7.95;;;4.95;;
57433;SDS011;43277;52.672;6.984;2022-09-29T06:00:25;36.70;;;19.50;;
57433;SDS011;43277;52.672;6.984;2022-09-29T06:02:51;26.60;;;10.07;;
57433;SDS011;43277;52.672;6.984;2022-09-29T06:05:16;57.65;;;30.52;;
57433;SDS011;43277;52.672;6.984;2022-09-29T06:07:42;36.03;;;11.45;;
57433;SDS011;43277;52.672;6.984;2022-09-29T06:10:07;55.45;;;11.88;;
57433;SDS011;43277;52.672;6.984;2022-09-29T06:12:34;137.90;;;26.60;;
57433;SDS011;43277;52.672;6.984;2022-09-29T06:15:02;32.95;;;7.00;;
57433;SDS011;43277;52.672;6.984;2022-09-29T06:17:29;97.22;;;20.67;;
57433;SDS011;43277;52.672;6.984;2022-09-29T06:19:54;122.18;;;38.65;;
57433;SDS011;43277;52.672;6.984;2022-09-29T06:22:20;43.85;;;9.98;;
57433;SDS011;43277;52.672;6.984;2022-09-29T06:24:46;15.45;;;7.53;;
57433;SDS011;43277;52.672;6.984;2022-09-29T06:27:11;14.63;;;6.38;;
57433;SDS011;43277;52.672;6.984;2022-09-29T06:29:37;27.40;;;23.35;;
57433;SDS011;43277;52.672;6.984;2022-09-29T06:32:03;17.38;;;14.02;;
57433;SDS011;43277;52.672;6.984;2022-09-29T06:34:28;16.17;;;7.07;;
57433;SDS011;43277;52.672;6.984;2022-09-29T06:36:54;14.60;;;11.68;;
57433;SDS011;43277;52.672;6.984;2022-09-29T06:39:38;22.25;;;19.95;;
57433;SDS011;43277;52.672;6.984;2022-09-29T06:42:04;12.60;;;9.13;;
57433;SDS011;43277;52.672;6.984;2022-09-29T06:44:30;22.15;;;7.60;;
57433;SDS011;43277;52.672;6.984;2022-09-29T06:46:56;35.20;;;12.52;;
57433;SDS011;43277;52.672;6.984;2022-09-29T06:49:22;53.00;;;26.35;;
57433;SDS011;43277;52.672;6.984;2022-09-29T06:51:49;77.35;;;32.47;;
57433;SDS011;43277;52.672;6.984;2022-09-29T06:54:16;50.50;;;37.08;;
57433;SDS011;43277;52.672;6.984;2022-09-29T06:56:48;18.60;;;12.90;;
57433;SDS011;43277;52.672;6.984;2022-09-29T06:59:14;53.95;;;32.05;;
57433;SDS011;43277;52.672;6.984;2022-09-29T07:01:40;34.05;;;27.85;;
57433;SDS011;43277;52.672;6.984;2022-09-29T07:04:06;15.90;;;10.50;;
57433;SDS011;43277;52.672;6.984;2022-09-29T07:06:32;39.75;;;23.80;;
57433;SDS011;43277;52.672;6.984;2022-09-29T07:08:58;26.67;;;17.42;;
57433;SDS011;43277;52.672;6.984;2022-09-29T07:11:25;18.88;;;11.25;;
57433;SDS011;43277;52.672;6.984;2022-09-29T07:13:52;64.13;;;38.55;;
57433;SDS011;43277;52.672;6.984;2022-09-29T07:16:18;72.80;;;42.40;;
57433;SDS011;43277;52.672;6.984;2022-09-29T07:18:44;129.48;;;49.80;;
57433;SDS011;43277;52.672;6.984;2022-09-29T07:21:11;111.40;;;47.78;;
57433;SDS011;43277;52.672;6.984;2022-09-29T07:26:07;41.65;;;13.75;;
57433;SDS011;43277;52.672;6.984;2022-09-29T07:28:33;128.23;;;51.35;;
57433;SDS011;43277;52.672;6.984;2022-09-29T07:31:15;123.38;;;48.10;;
57433;SDS011;43277;52.672;6.984;2022-09-29T07:33:43;90.38;;;46.05;;
57433;SDS011;43277;52.672;6.984;2022-09-29T07:36:11;208.75;;;58.75;;
57433;SDS011;43277;52.672;6.984;2022-09-29T07:38:37;190.45;;;57.40;;
57433;SDS011;43277;52.672;6.984;2022-09-29T07:41:07;187.20;;;53.00;;
57433;SDS011;43277;52.672;6.984;2022-09-29T07:43:37;146.70;;;59.72;;
57433;SDS011;43277;52.672;6.984;2022-09-29T07:46:03;163.30;;;53.72;;
57433;SDS011;43277;52.672;6.984;2022-09-29T07:48:30;110.00;;;47.75;;
57433;SDS011;43277;52.672;6.984;2022-09-29T07:51:03;73.28;;;35.70;;
57433;SDS011;43277;52.672;6.984;2022-09-29T07:56:05;239.32;;;68.82;;
57433;SDS011;43277;52.672;6.984;2022-09-29T07:58:42;134.95;;;38.30;;
57433;SDS011;43277;52.672;6.984;2022-09-29T08:01:09;90.20;;;52.92;;
57433;SDS011;43277;52.672;6.984;2022-09-29T08:03:37;64.70;;;43.88;;
57433;SDS011;43277;52.672;6.984;2022-09-29T08:06:04;70.72;;;40.38;;
57433;SDS011;43277;52.672;6.984;2022-09-29T08:08:31;179.32;;;49.40;;
57433;SDS011;43277;52.672;6.984;2022-09-29T08:11:01;119.75;;;56.80;;
57433;SDS011;43277;52.672;6.984;2022-09-29T08:13:28;103.75;;;48.75;;
57433;SDS011;43277;52.672;6.984;2022-09-29T08:15:58;182.68;;;44.38;;
57433;SDS011;43277;52.672;6.984;2022-09-29T08:18:25;191.63;;;38.88;;
57433;SDS011;43277;52.672;6.984;2022-09-29T08:20:51;159.90;;;48.78;;
57433;SDS011;43277;52.672;6.984;2022-09-29T08:23:18;79.82;;;45.15;;
57433;SDS011;43277;52.672;6.984;2022-09-29T08:25:44;56.35;;;43.17;;
57433;SDS011;43277;52.672;6.984;2022-09-29T08:28:10;56.45;;;42.42;;
57433;SDS011;43277;52.672;6.984;2022-09-29T08:30:36;156.15;;;70.20;;
57433;SDS011;43277;52.672;6.984;2022-09-29T08:33:02;89.50;;;57.65;;
57433;SDS011;43277;52.672;6.984;2022-09-29T08:35:28;80.65;;;60.17;;
57433;SDS011;43277;52.672;6.984;2022-09-29T08:37:54;119.88;;;74.00;;
57433;SDS011;43277;52.672;6.984;2022-09-29T08:40:22;109.05;;;61.78;;
57433;SDS011;43277;52.672;6.984;2022-09-29T08:45:46;44.90;;;40.33;;
57433;SDS011;43277;52.672;6.984;2022-09-29T08:48:19;46.88;;;41.92;;
57433;SDS011;43277;52.672;6.984;2022-09-29T08:53:20;49.50;;;44.15;;
57433;SDS011;43277;52.672;6.984;2022-09-29T08:55:50;52.42;;;39.97;;
57433;SDS011;43277;52.672;6.984;2022-09-29T08:58:19;32.33;;;29.17;;
57433;SDS011;43277;52.672;6.984;2022-09-29T09:01:28;35.05;;;31.50;;
57433;SDS011;43277;52.672;6.984;2022-09-29T09:06:42;28.20;;;25.67;;
57433;SDS011;43277;52.672;6.984;2022-09-29T09:15:29;28.00;;;25.40;;
57433;SDS011;43277;52.672;6.984;2022-09-29T09:21:18;27.10;;;24.60;;
57433;SDS011;43277;52.672;6.984;2022-09-29T09:26:41;26.60;;;24.20;;
57433;SDS011;43277;52.672;6.984;2022-09-29T09:29:51;27.33;;;24.63;;
57433;SDS011;43277;52.672;6.984;2022-09-29T09:37:04;25.85;;;23.42;;
57433;SDS011;43277;52.672;6.984;2022-09-29T09:42:36;23.92;;;21.73;;
57433;SDS011;43277;52.672;6.984;2022-09-29T09:45:04;22.98;;;20.92;;
57433;SDS011;43277;52.672;6.984;2022-09-29T09:47:49;23.95;;;21.55;;
57433;SDS011;43277;52.672;6.984;2022-09-29T09:50:21;22.38;;;20.35;;
57433;SDS011;43277;52.672;6.984;2022-09-29T09:55:29;21.10;;;18.90;;
57433;SDS011;43277;52.672;6.984;2022-09-29T10:00:38;18.90;;;17.10;;
57433;SDS011;43277;52.672;6.984;2022-09-29T10:03:11;17.50;;;15.73;;
57433;SDS011;43277;52.672;6.984;2022-09-29T10:05:39;18.30;;;16.45;;
57433;SDS011;43277;52.672;6.984;2022-09-29T10:10:53;18.95;;;16.48;;
57433;SDS011;43277;52.672;6.984;2022-09-29T10:13:19;16.45;;;13.88;;
57433;SDS011;43277;52.672;6.984;2022-09-29T10:15:58;16.92;;;15.23;;
57433;SDS011;43277;52.672;6.984;2022-09-29T10:18:28;16.42;;;14.63;;
57433;SDS011;43277;52.672;6.984;2022-09-29T10:20:55;14.85;;;13.27;;
57433;SDS011;43277;52.672;6.984;2022-09-29T10:28:57;10.38;;;8.45;;
57433;SDS011;43277;52.672;6.984;2022-09-29T10:31:27;10.27;;;7.75;;
57433;SDS011;43277;52.672;6.984;2022-09-29T10:33:59;9.45;;;8.32;;
57433;SDS011;43277;52.672;6.984;2022-09-29T10:36:52;8.27;;;7.38;;
57433;SDS011;43277;52.672;6.984;2022-09-29T10:39:37;10.45;;;8.20;;
57433;SDS011;43277;52.672;6.984;2022-09-29T10:42:24;10.73;;;9.05;;
57433;SDS011;43277;52.672;6.984;2022-09-29T10:45:01;9.07;;;7.88;;
57433;SDS011;43277;52.672;6.984;2022-09-29T10:47:47;10.90;;;9.32;;
57433;SDS011;43277;52.672;6.984;2022-09-29T10:50:33;8.82;;;7.90;;
57433;SDS011;43277;52.672;6.984;2022-09-29T10:53:05;9.48;;;8.35;;
57433;SDS011;43277;52.672;6.984;2022-09-29T10:55:56;10.45;;;8.70;;
57433;SDS011;43277;52.672;6.984;2022-09-29T10:58:28;9.30;;;7.00;;
57433;SDS011;43277;52.672;6.984;2022-09-29T11:01:05;9.07;;;7.70;;
57433;SDS011;43277;52.672;6.984;2022-09-29T11:03:34;8.77;;;7.07;;
57433;SDS011;43277;52.672;6.984;2022-09-29T11:06:10;11.82;;;7.22;;
57433;SDS011;43277;52.672;6.984;2022-09-29T11:08:57;9.77;;;7.28;;
57433;SDS011;43277;52.672;6.984;2022-09-29T11:11:38;7.43;;;6.53;;
57433;SDS011;43277;52.672;6.984;2022-09-29T11:14:22;10.85;;;7.13;;
57433;SDS011;43277;52.672;6.984;2022-09-29T11:16:57;9.88;;;7.05;;
57433;SDS011;43277;52.672;6.984;2022-09-29T11:19:24;7.68;;;6.40;;
57433;SDS011;43277;52.672;6.984;2022-09-29T11:21:55;11.35;;;6.53;;
57433;SDS011;43277;52.672;6.984;2022-09-29T11:30:06;10.05;;;7.55;;
57433;SDS011;43277;52.672;6.984;2022-09-29T11:41:13;9.98;;;7.10;;
57433;SDS011;43277;52.672;6.984;2022-09-29T11:43:53;10.30;;;7.93;;
57433;SDS011;43277;52.672;6.984;2022-09-29T11:48:59;11.23;;;7.55;;
57433;SDS011;43277;52.672;6.984;2022-09-29T11:54:47;11.55;;;8.45;;
57433;SDS011;43277;52.672;6.984;2022-09-29T11:59:56;13.80;;;10.23;;
57433;SDS011;43277;52.672;6.984;2022-09-29T12:05:24;10.88;;;9.80;;
57433;SDS011;43277;52.672;6.984;2022-09-29T12:11:16;9.73;;;7.20;;
57433;SDS011;43277;52.672;6.984;2022-09-29T12:14:09;8.63;;;6.80;;
57433;SDS011;43277;52.672;6.984;2022-09-29T12:16:41;11.93;;;7.00;;
57433;SDS011;43277;52.672;6.984;2022-09-29T12:19:17;9.55;;;7.57;;
57433;SDS011;43277;52.672;6.984;2022-09-29T12:21:48;9.60;;;7.40;;
57433;SDS011;43277;52.672;6.984;2022-09-29T12:24:18;10.43;;;7.97;;
57433;SDS011;43277;52.672;6.984;2022-09-29T12:26:45;8.02;;;5.13;;
57433;SDS011;43277;52.672;6.984;2022-09-29T12:29:22;19.70;;;7.90;;
57433;SDS011;43277;52.672;6.984;2022-09-29T12:32:01;10.45;;;6.20;;
57433;SDS011;43277;52.672;6.984;2022-09-29T12:34:41;9.70;;;6.10;;
57433;SDS011;43277;52.672;6.984;2022-09-29T12:48:05;10.77;;;7.68;;
57433;SDS011;43277;52.672;6.984;2022-09-29T12:50:50;9.27;;;6.20;;
57433;SDS011;43277;52.672;6.984;2022-09-29T12:53:40;9.27;;;6.40;;
57433;SDS011;43277;52.672;6.984;2022-09-29T13:05:14;7.53;;;4.32;;
57433;SDS011;43277;52.672;6.984;2022-09-29T13:13:27;11.77;;;6.05;;
57433;SDS011;43277;52.672;6.984;2022-09-29T13:16:16;8.20;;;5.50;;
57433;SDS011;43277;52.672;6.984;2022-09-29T13:19:02;8.45;;;4.97;;
57433;SDS011;43277;52.672;6.984;2022-09-29T13:22:11;6.93;;;3.53;;
57433;SDS011;43277;52.672;6.984;2022-09-29T13:27:31;12.57;;;3.88;;
57433;SDS011;43277;52.672;6.984;2022-09-29T13:32:30;7.72;;;6.10;;
57433;SDS011;43277;52.672;6.984;2022-09-29T13:34:58;8.80;;;5.93;;
57433;SDS011;43277;52.672;6.984;2022-09-29T13:37:26;7.43;;;5.90;;
57433;SDS011;43277;52.672;6.984;2022-09-29T13:40:01;7.53;;;5.63;;
57433;SDS011;43277;52.672;6.984;2022-09-29T13:58:35;7.68;;;5.47;;
57433;SDS011;43277;52.672;6.984;2022-09-29T14:01:30;6.43;;;4.95;;
57433;SDS011;43277;52.672;6.984;2022-09-29T14:04:22;7.63;;;4.90;;
57433;SDS011;43277;52.672;6.984;2022-09-29T14:07:03;6.20;;;3.88;;
57433;SDS011;43277;52.672;6.984;2022-09-29T14:09:30;5.47;;;3.50;;
57433;SDS011;43277;52.672;6.984;2022-09-29T14:12:14;5.45;;;2.90;;
57433;SDS011;43277;52.672;6.984;2022-09-29T14:14:53;6.13;;;3.33;;
57433;SDS011;43277;52.672;6.984;2022-09-29T14:17:32;6.05;;;3.65;;
57433;SDS011;43277;52.672;6.984;2022-09-29T14:20:11;7.88;;;4.03;;
57433;SDS011;43277;52.672;6.984;2022-09-29T14:22:53;8.27;;;3.80;;
57433;SDS011;43277;52.672;6.984;2022-09-29T14:25:54;6.75;;;2.65;;
57433;SDS011;43277;52.672;6.984;2022-09-29T14:28:22;6.45;;;3.60;;
57433;SDS011;43277;52.672;6.984;2022-09-29T14:30:55;8.10;;;3.85;;
57433;SDS011;43277;52.672;6.984;2022-09-29T14:33:36;6.28;;;3.30;;
57433;SDS011;43277;52.672;6.984;2022-09-29T14:36:15;6.68;;;3.10;;
57433;SDS011;43277;52.672;6.984;2022-09-29T14:38:50;6.95;;;2.67;;
57433;SDS011;43277;52.672;6.984;2022-09-29T14:44:06;6.18;;;3.63;;
57433;SDS011;43277;52.672;6.984;2022-09-29T14:52:37;6.47;;;4.45;;
57433;SDS011;43277;52.672;6.984;2022-09-29T14:55:24;6.88;;;4.60;;
57433;SDS011;43277;52.672;6.984;2022-09-29T14:58:30;7.20;;;4.68;;
57433;SDS011;43277;52.672;6.984;2022-09-29T15:03:56;8.25;;;5.07;;
57433;SDS011;43277;52.672;6.984;2022-09-29T15:06:30;7.45;;;4.70;;
57433;SDS011;43277;52.672;6.984;2022-09-29T15:09:10;7.07;;;4.93;;
57433;SDS011;43277;52.672;6.984;2022-09-29T15:11:52;6.55;;;4.32;;
57433;SDS011;43277;52.672;6.984;2022-09-29T15:14:29;6.75;;;4.00;;
57433;SDS011;43277;52.672;6.984;2022-09-29T15:19:51;6.75;;;3.00;;
57433;SDS011;43277;52.672;6.984;2022-09-29T15:30:43;7.97;;;4.20;;
57433;SDS011;43277;52.672;6.984;2022-09-29T15:33:23;7.13;;;3.95;;
57433;SDS011;43277;52.672;6.984;2022-09-29T15:35:57;6.53;;;4.13;;
57433;SDS011;43277;52.672;6.984;2022-09-29T15:40:57;6.22;;;4.22;;
57433;SDS011;43277;52.672;6.984;2022-09-29T15:43:25;6.80;;;4.03;;
57433;SDS011;43277;52.672;6.984;2022-09-29T15:45:56;7.28;;;4.00;;
57433;SDS011;43277;52.672;6.984;2022-09-29T15:48:24;6.65;;;4.07;;
57433;SDS011;43277;52.672;6.984;2022-09-29T15:50:50;6.30;;;3.80;;
57433;SDS011;43277;52.672;6.984;2022-09-29T15:53:19;7.03;;;4.40;;
57433;SDS011;43277;52.672;6.984;2022-09-29T15:55:49;6.10;;;3.92;;
57433;SDS011;43277;52.672;6.984;2022-09-29T16:03:25;7.15;;;4.03;;
57433;SDS011;43277;52.672;6.984;2022-09-29T16:06:30;8.35;;;5.25;;
57433;SDS011;43277;52.672;6.984;2022-09-29T16:09:00;8.90;;;4.75;;
57433;SDS011;43277;52.672;6.984;2022-09-29T16:11:34;8.98;;;5.05;;
57433;SDS011;43277;52.672;6.984;2022-09-29T16:14:02;7.55;;;4.38;;
57433;SDS011;43277;52.672;6.984;2022-09-29T16:16:39;6.72;;;4.00;;
57433;SDS011;43277;52.672;6.984;2022-09-29T16:19:10;7.90;;;4.55;;
57433;SDS011;43277;52.672;6.984;2022-09-29T16:21:40;8.52;;;4.78;;
57433;SDS011;43277;52.672;6.984;2022-09-29T16:24:17;7.38;;;4.82;;
57433;SDS011;43277;52.672;6.984;2022-09-29T16:26:48;7.47;;;4.65;;
57433;SDS011;43277;52.672;6.984;2022-09-29T16:31:44;8.57;;;4.80;;
57433;SDS011;43277;52.672;6.984;2022-09-29T16:36:49;7.85;;;4.47;;
57433;SDS011;43277;52.672;6.984;2022-09-29T16:39:23;9.82;;;4.63;;
57433;SDS011;43277;52.672;6.984;2022-09-29T16:41:55;6.45;;;4.05;;
57433;SDS011;43277;52.672;6.984;2022-09-29T16:44:35;7.75;;;4.43;;
57433;SDS011;43277;52.672;6.984;2022-09-29T16:47:16;7.95;;;4.53;;
57433;SDS011;43277;52.672;6.984;2022-09-29T16:49:46;7.05;;;4.18;;
57433;SDS011;43277;52.672;6.984;2022-09-29T16:54:53;9.30;;;4.35;;
57433;SDS011;43277;52.672;6.984;2022-09-29T16:57:32;7.07;;;4.18;;
57433;SDS011;43277;52.672;6.984;2022-09-29T17:00:09;8.07;;;4.22;;
57433;SDS011;43277;52.672;6.984;2022-09-29T17:02:36;9.15;;;4.03;;
57433;SDS011;43277;52.672;6.984;2022-09-29T17:05:02;9.55;;;4.00;;
57433;SDS011;43277;52.672;6.984;2022-09-29T17:07:29;8.20;;;3.65;;
57433;SDS011;43277;52.672;6.984;2022-09-29T17:09:56;9.07;;;3.70;;
57433;SDS011;43277;52.672;6.984;2022-09-29T17:12:24;10.60;;;4.40;;
57433;SDS011;43277;52.672;6.984;2022-09-29T17:14:53;7.25;;;3.40;;
57433;SDS011;43277;52.672;6.984;2022-09-29T17:17:23;8.43;;;2.50;;
57433;SDS011;43277;52.672;6.984;2022-09-29T17:19:50;7.70;;;2.15;;
57433;SDS011;43277;52.672;6.984;2022-09-29T17:24:51;5.00;;;1.13;;
57433;SDS011;43277;52.672;6.984;2022-09-29T17:27:17;4.40;;;1.35;;
57433;SDS011;43277;52.672;6.984;2022-09-29T17:30:02;4.63;;;1.50;;
57433;SDS011;43277;52.672;6.984;2022-09-29T17:32:29;4.88;;;1.35;;
57433;SDS011;43277;52.672;6.984;2022-09-29T17:34:54;5.63;;;1.00;;
57433;SDS011;43277;52.672;6.984;2022-09-29T17:37:20;5.65;;;1.20;;
57433;SDS011;43277;52.672;6.984;2022-09-29T17:39:46;3.47;;;1.00;;
57433;SDS011;43277;52.672;6.984;2022-09-29T17:42:11;4.55;;;1.10;;
57433;SDS011;43277;52.672;6.984;2022-09-29T17:44:37;6.43;;;1.40;;
57433;SDS011;43277;52.672;6.984;2022-09-29T17:47:08;7.22;;;1.30;;
57433;SDS011;43277;52.672;6.984;2022-09-29T17:49:37;7.28;;;1.38;;
57433;SDS011;43277;52.672;6.984;2022-09-29T17:52:05;6.18;;;1.30;;
57433;SDS011;43277;52.672;6.984;2022-09-29T17:54:33;4.70;;;1.30;;
57433;SDS011;43277;52.672;6.984;2022-09-29T17:56:59;3.95;;;0.90;;
57433;SDS011;43277;52.672;6.984;2022-09-29T17:59:25;5.22;;;1.10;;
57433;SDS011;43277;52.672;6.984;2022-09-29T18:01:51;8.93;;;1.42;;
57433;SDS011;43277;52.672;6.984;2022-09-29T18:04:17;7.90;;;1.70;;
57433;SDS011;43277;52.672;6.984;2022-09-29T18:06:43;6.50;;;2.83;;